Pagina principală
METAR-TAF:

METAR-TAF

Aeroporturi :

Tinian, Insulele Mariane, Statele Unite ale Americii

Latitudine: 14-59N, longitudine: 145-37E, elevație: 82 m

Observații meteo curente

Raportul a fost făcut în urmă cu 5 ore și 31 de minute, la 09:50 UTC
Vânt 14 kt de la Est
Temperatură 26°C
Umiditate 70%
Presiune 1013 hPa
Vizibilitate: 11.3 km
Nori împrăștiați la o înălțime de 1700 picior
Nori împrăștiați la o înălțime de 10000 picior

METAR: PGWT 180950Z 09014KT 7SM SCT017 SCT100 26/20 A2991 RMK LAST

Ora: 01:21 (15:21 UTC)

Prognoză

Raportul a fost făcut în urmă cu 9 ore și 59 de minute, la 05:22 UTC
Prognoză valabilă de la 18 ora 06 UTC la 19 ora 06 UTC
Vânt 16 kt de la Est
Vizibilitate: 10 km
Nori împrăștiați la o înălțime de 2000 picior
Nori împrăștiați la o înălțime de 6000 picior
averse în apropiere

TAF: PGWT 180522Z 1806/1906 08016KT P6SM VCSH SCT020 SCT060

Observații și prognoze meteo pentru peste 4.000 de aeroporturi (rapoarte METAR și TAF).

Stațiile disponibile sunt reprezentate pe hartă prin puncte galbene și roșii.

Țineți indicatorul mouse-ului pe punctul dorit pentru a vedea denumirea stației.

Apoi, faceți clic pentru a vedea observațiile și prognozele meteorologice.

Pentru a schimba harta: Pentru mărire, faceți clic pe butoanele verzi cu cruce neagră; pentru micșorare, pe butonul verde cu o liniuță; pentru hărți învecinate, pe săgețile verzi.


METAR-TAF: